Kezdőlap
METAR-TAF:

METAR-TAF

Repülőterek :

Wattay nemzetközi repülőtér

Vientián, Laosz

földrajzi szélesség: 17-57N, földrajzi hosszúság: 102-34E, magasság: 171 m

Jelenlegi meteorológiai megfigyelések

A jelentés 6 órával és 20 perccel ezelõtt készült, 16:30 UTC
Északnyugati szél 6 kt
Hőmérséklet 26°C
Páratartalom 94%
Légköri nyomás 1012 hPa
Látótávolság: 3000 m
Kevés felhő 5000 lábon
Párásság

METAR: VLVT 161630Z 32006KT 3000 BR FEW050 26/25 Q1012 NOSIG

Idő: 05:50 (22:50 UTC)

Előrejelzés

A jelentés 5 órával és 50 perccel ezelõtt készült, 17:00 UTC
Az előrejelzés 16-én 18 óra UTC és 17-én 18 óra UTC között érvényes
Délkeleti szél 4 kt
Látótávolság: 8000 m
Szórványos felhőzet 2000 lábon
Szórványos felhőzet 5000 lábon
16-én 18 óra UTC és 16-én 22 óra UTC között ideiglenes
Látótávolság: 3000 m
Szórványos felhőzet 4000 lábon
Párásság

TAF: VLVT 161700Z 1618/1718 14004KT 8000 SCT020 SCT050 TEMPO 1618/1622 3000 BR SCT040

Meteorológiai megfigyelések és előrejelzések több, mint 4000 repülőtéren (METAR és TAF jelentéseket).

A térképen piros és sárga pontok jelzik az elérhető meteorológiai állomásokat.

Mozgassa az egeret a pont fölött, hogy megjelenjen az állomás neve.

Azután kattintson az időjárási megfigyelések és előrejelzések megtekintéséhez.

A térkép megváltoztatása: kattintson a fekete keresztel jelölt zöld gombra ráközelítéshez, a vonallal jelölt zöld gombra távolításhoz, vagy a zöld nyilakra a szomszédos térképek eléréséhez.


METAR-TAF: